CDT,Max TemperatureF,Mean TemperatureF,Min TemperatureF,Max Dew PointF,MeanDew PointF,Min DewpointF,Max Humidity, Mean Humidity, Min Humidity, Max Sea Level PressureIn, Mean Sea Level PressureIn, Min Sea Level PressureIn, Max VisibilityMiles, Mean VisibilityMiles, Min VisibilityMiles, Max Wind SpeedMPH, Mean Wind SpeedMPH, Max Gust SpeedMPH,PrecipitationIn, CloudCover, Events, WindDirDegrees
2012-10-1,66,50,33,46,39,28,87,58,26,30.00,29.94,29.85,10,10,10,15,4,23,0.00,0,,321
2012-10-2,71,50,28,39,31,25,93,54,19,29.98,29.85,29.73,10,10,10,22,5,29,0.00,0,,182
2012-10-3,69,51,33,43,37,30,87,59,31,29.96,29.89,29.81,10,10,4,12,4,17,0.00,0,,352
2012-10-4,51,42,33,45,37,30,93,83,67,29.93,29.75,29.56,10,7,1,20,11,31,0.31,6,Rain-Snow-Thunderstorm,293
2012-10-5,37,34,32,34,30,28,93,87,81,30.13,29.96,29.87,10,5,1,15,9,23,0.09,8,Rain-Snow,282
2012-10-6,44,35,26,30,27,23,93,76,46,30.26,30.20,30.12,10,10,5,10,6,17,0.00,4,Snow,300
2012-10-7,53,40,26,30,24,21,93,61,30,30.11,29.92,29.75,10,10,10,18,7,26,0.00,3,,206
2012-10-8,44,40,37,41,32,23,93,70,46,29.75,29.60,29.49,10,9,2,10,6,,0.16,6,Rain,192
2012-10-9,42,37,32,39,34,28,93,88,75,29.90,29.71,29.59,10,9,2,12,7,24,0.04,6,Rain-Snow,267
2012-10-10,44,37,30,34,29,25,93,79,49,29.98,29.93,29.90,10,9,2,15,3,21,0.05,6,Rain-Snow,255
2012-10-11,42,34,26,32,27,21,93,75,49,30.34,30.10,29.91,10,10,2,12,3,20,0.00,5,Snow,302
2012-10-12,48,32,17,28,19,16,93,63,34,30.38,30.24,29.94,10,10,10,15,4,22,0.00,2,,171
2012-10-13,55,42,30,41,31,18,93,61,34,29.93,29.77,29.69,10,9,0,10,6,,0.00,3,Fog,151
2012-10-14,55,42,28,45,33,27,100,77,51,29.88,29.84,29.81,10,6,0,7,1,,0.00,5,Fog,334
2012-10-15,57,40,23,37,31,21,93,67,44,29.91,29.82,29.64,10,10,10,14,3,18,0.00,2,Rain,171
2012-10-16,71,56,42,45,41,36,87,59,29,29.63,29.47,29.34,10,10,10,9,6,,0.00,1,Rain,182
2012-10-17,53,50,46,50,46,43,94,87,71,29.35,29.19,29.07,10,9,2,14,5,17,0.07,5,Rain,139
2012-10-18,53,48,44,52,46,43,100,92,87,29.43,29.23,29.14,10,7,2,9,3,,0.29,8,Rain,15
2012-10-19,53,46,39,50,44,37,100,85,66,29.73,29.62,29.43,10,9,5,13,6,20,0.29,7,Rain,31
2012-10-20,55,44,33,41,37,30,100,79,54,29.76,29.73,29.71,10,10,3,12,3,16,0.00,4,,174
2012-10-21,59,52,44,46,44,39,93,81,55,30.00,29.85,29.77,10,8,2,9,5,,0.02,3,Rain,179
2012-10-22,57,50,44,45,38,34,93,64,44,30.10,30.05,29.98,10,10,2,9,7,,0.00,3,,46
2012-10-23,51,48,44,48,45,41,94,91,76,29.99,29.81,29.71,10,6,2,13,8,17,0.20,8,Rain-Thunderstorm,113
2012-10-24,51,44,37,50,44,36,94,90,82,29.94,29.86,29.74,10,8,2,7,5,,0.01,8,Rain,287
2012-10-25,37,34,32,36,30,27,93,84,70,29.94,29.86,29.81,10,8,2,13,6,20,0.09,7,Rain-Snow,300
2012-10-26,35,32,28,28,22,18,75,65,55,30.23,30.14,29.95,10,10,3,15,9,25,0.00,8,Snow,256
2012-10-27,35,29,23,21,19,14,80,62,44,30.32,30.27,30.22,10,10,10,12,4,16,0.00,6,,250
2012-10-28,30,27,24,27,23,18,86,83,64,30.33,30.30,30.29,10,8,1,6,3,,0.09,8,Snow,54
2012-10-29,42,36,30,30,28,27,93,76,53,30.30,30.28,30.27,10,9,4,8,5,,0.00,5,Snow,115
2012-10-30,46,35,24,28,24,18,93,68,36,30.29,30.21,30.11,10,10,10,9,3,,0.00,1,,75
2012-10-31,46,29,12,27,15,7,93,62,20,30.11,30.01,29.93,10,10,7,6,0,,0.00,3,,318